<?xml version="1.0" encoding="utf-8"?>
<gpx xmlns:xsi="http://www.w3.org/2001/XMLSchema-instance" xmlns:xsd="http://www.w3.org/2001/XMLSchema" version="1.1" creator="Shapelink.com" xmlns="http://www.topografix.com/GPX/1/1" xmlns:gpxtpx="http://www.garmin.com/xmlschemas/TrackPointExtension/v1">
  <metadata>
    <name>Gåing 0.49 km, 2012-03-29</name>
    <desc></desc>
    <author><name>Mikael Blom</name></author> 
    <time>2012-03-29T17:46:30Z</time>
  </metadata>
  <trk>
    <name>Gåing 0.49 km, 2012-03-29</name>
    <trkseg>
      <trkpt lat="59.9556736" lon="17.714844">
        <ele>44.8386</ele>
        <time>2012-03-29T17:46:30Z</time>
      </trkpt>
      <trkpt lat="59.9556971" lon="17.7148935">
        <ele>42.916</ele>
        <time>2012-03-29T17:46:33Z</time>
      </trkpt>
      <trkpt lat="59.9557464" lon="17.7150388">
        <ele>39.0707</ele>
        <time>2012-03-29T17:46:39Z</time>
      </trkpt>
      <trkpt lat="59.9558053" lon="17.7151893">
        <ele>38.1094</ele>
        <time>2012-03-29T17:46:46Z</time>
      </trkpt>
      <trkpt lat="59.9558283" lon="17.7152523">
        <ele>37.1481</ele>
        <time>2012-03-29T17:46:49Z</time>
      </trkpt>
      <trkpt lat="59.9559101" lon="17.715392">
        <ele>38.1094</ele>
        <time>2012-03-29T17:46:55Z</time>
      </trkpt>
      <trkpt lat="59.9559808" lon="17.71553">
        <ele>37.6287</ele>
        <time>2012-03-29T17:47:02Z</time>
      </trkpt>
      <trkpt lat="59.9560503" lon="17.7157254">
        <ele>37.6287</ele>
        <time>2012-03-29T17:47:10Z</time>
      </trkpt>
      <trkpt lat="59.956068" lon="17.7157693">
        <ele>37.6287</ele>
        <time>2012-03-29T17:47:12Z</time>
      </trkpt>
      <trkpt lat="59.9561057" lon="17.7158983">
        <ele>39.5513</ele>
        <time>2012-03-29T17:47:17Z</time>
      </trkpt>
      <trkpt lat="59.9561688" lon="17.7160516">
        <ele>40.5128</ele>
        <time>2012-03-29T17:47:23Z</time>
      </trkpt>
      <trkpt lat="59.9562162" lon="17.7161787">
        <ele>41.9547</ele>
        <time>2012-03-29T17:47:29Z</time>
      </trkpt>
      <trkpt lat="59.956281" lon="17.7163584">
        <ele>40.5128</ele>
        <time>2012-03-29T17:47:37Z</time>
      </trkpt>
      <trkpt lat="59.9563358" lon="17.7164666">
        <ele>39.5513</ele>
        <time>2012-03-29T17:47:43Z</time>
      </trkpt>
      <trkpt lat="59.9564033" lon="17.7166044">
        <ele>36.6675</ele>
        <time>2012-03-29T17:47:50Z</time>
      </trkpt>
      <trkpt lat="59.9564177" lon="17.716624">
        <ele>35.7061</ele>
        <time>2012-03-29T17:47:51Z</time>
      </trkpt>
      <trkpt lat="59.9564906" lon="17.7167877">
        <ele>33.3029</ele>
        <time>2012-03-29T17:47:59Z</time>
      </trkpt>
      <trkpt lat="59.9565394" lon="17.7169399">
        <ele>33.3029</ele>
        <time>2012-03-29T17:48:06Z</time>
      </trkpt>
      <trkpt lat="59.9565834" lon="17.7170472">
        <ele>32.3416</ele>
        <time>2012-03-29T17:48:11Z</time>
      </trkpt>
      <trkpt lat="59.9566671" lon="17.7172466">
        <ele>35.2255</ele>
        <time>2012-03-29T17:48:19Z</time>
      </trkpt>
      <trkpt lat="59.9567571" lon="17.7174118">
        <ele>40.5128</ele>
        <time>2012-03-29T17:48:26Z</time>
      </trkpt>
      <trkpt lat="59.9568098" lon="17.7175088">
        <ele>41.474</ele>
        <time>2012-03-29T17:48:31Z</time>
      </trkpt>
      <trkpt lat="59.956906" lon="17.7177216">
        <ele>42.4354</ele>
        <time>2012-03-29T17:48:41Z</time>
      </trkpt>
      <trkpt lat="59.9569756" lon="17.717875">
        <ele>42.916</ele>
        <time>2012-03-29T17:48:48Z</time>
      </trkpt>
      <trkpt lat="59.9570533" lon="17.7180455">
        <ele>45.7999</ele>
        <time>2012-03-29T17:48:56Z</time>
      </trkpt>
      <trkpt lat="59.9570792" lon="17.7181111">
        <ele>46.7612</ele>
        <time>2012-03-29T17:48:59Z</time>
      </trkpt>
      <trkpt lat="59.9571554" lon="17.7183058">
        <ele>45.3192</ele>
        <time>2012-03-29T17:49:08Z</time>
      </trkpt>
      <trkpt lat="59.9572303" lon="17.7184734">
        <ele>46.7612</ele>
        <time>2012-03-29T17:49:15Z</time>
      </trkpt>
      <trkpt lat="59.9573025" lon="17.7185776">
        <ele>49.1646</ele>
        <time>2012-03-29T17:49:20Z</time>
      </trkpt>
      <trkpt lat="59.9573748" lon="17.7187158">
        <ele>49.1646</ele>
        <time>2012-03-29T17:49:26Z</time>
      </trkpt>
      <trkpt lat="59.9574541" lon="17.7188958">
        <ele>50.6066</ele>
        <time>2012-03-29T17:49:34Z</time>
      </trkpt>
      <trkpt lat="59.957462" lon="17.7189204">
        <ele>50.6066</ele>
        <time>2012-03-29T17:49:35Z</time>
      </trkpt>
      <trkpt lat="59.9575582" lon="17.7190897">
        <ele>52.5292</ele>
        <time>2012-03-29T17:49:43Z</time>
      </trkpt>
      <trkpt lat="59.9576453" lon="17.7192721">
        <ele>52.5292</ele>
        <time>2012-03-29T17:49:52Z</time>
      </trkpt>
      <trkpt lat="59.9577148" lon="17.7195265">
        <ele>53.0098</ele>
        <time>2012-03-29T17:50:02Z</time>
      </trkpt>
      <trkpt lat="59.9577783" lon="17.7196813">
        <ele>52.5292</ele>
        <time>2012-03-29T17:50:09Z</time>
      </trkpt>
      <trkpt lat="59.9578747" lon="17.7198484">
        <ele>52.5292</ele>
        <time>2012-03-29T17:50:18Z</time>
      </trkpt>
      <trkpt lat="59.9579505" lon="17.7200293">
        <ele>52.0486</ele>
        <time>2012-03-29T17:50:26Z</time>
      </trkpt>
      <trkpt lat="59.9580199" lon="17.7202024">
        <ele>50.6066</ele>
        <time>2012-03-29T17:50:34Z</time>
      </trkpt>
      <trkpt lat="59.958039" lon="17.7202439">
        <ele>50.126</ele>
        <time>2012-03-29T17:50:36Z</time>
      </trkpt>
      <trkpt lat="59.9580939" lon="17.7203605">
        <ele>49.6453</ele>
        <time>2012-03-29T17:50:42Z</time>
      </trkpt>
      <trkpt lat="59.9581556" lon="17.7205059">
        <ele>47.7225</ele>
        <time>2012-03-29T17:50:49Z</time>
      </trkpt>
      <trkpt lat="59.9581799" lon="17.7205581">
        <ele>45.3192</ele>
        <time>2012-03-29T17:50:52Z</time>
      </trkpt>
      <trkpt lat="59.9582588" lon="17.7207282">
        <ele>42.4354</ele>
        <time>2012-03-29T17:51:01Z</time>
      </trkpt>
      <trkpt lat="59.9583105" lon="17.7208137">
        <ele>40.9934</ele>
        <time>2012-03-29T17:51:06Z</time>
      </trkpt>
      <trkpt lat="59.9583881" lon="17.7209541">
        <ele>38.1094</ele>
        <time>2012-03-29T17:51:14Z</time>
      </trkpt>
      <trkpt lat="59.9584455" lon="17.7210602">
        <ele>36.1868</ele>
        <time>2012-03-29T17:51:20Z</time>
      </trkpt>
      <trkpt lat="59.9584535" lon="17.7210813">
        <ele>35.7061</ele>
        <time>2012-03-29T17:51:21Z</time>
      </trkpt>
      <trkpt lat="59.9585543" lon="17.7212296">
        <ele>33.3029</ele>
        <time>2012-03-29T17:51:30Z</time>
      </trkpt>
      <trkpt lat="59.9585813" lon="17.7212697">
        <ele>34.7449</ele>
        <time>2012-03-29T17:51:32Z</time>
      </trkpt>
    </trkseg>
  </trk>
</gpx>